Station Historical Data
Daily Summary for June 14, 2017 Units:  Both    English   Metric
« Previous Day
Next Day »
Daily Weekly Monthly Yearly Custom
  High: Low: Average:
Temperature: 81.2 °F /  27.3 °C 59.3 °F /  15.2 °C 69.8 °F /  21 °C
Dew Point: 62.2 °F /  16.8 °C 38.7 °F /  3.7 °C 54.1 °F /  12.3 °C
Humidity: 92% 37% 61%
Wind Speed: 13.0mph /  20.9km/h - 3.7mph /  6km/h
Wind Gust: 19.0mph /  30.6km/h - -
Wind- - ENE
Pressure: 30.08 in /  1018.5 hPa 29.96 in /  1014.4 hPa -
Precipitation: 0.00 in /  0 mm    
Historical Graphs
 
 
Tabular Data for June 14, 2017
Time Temperature Dew Point Pressure Wind Wind Speed Wind Gust Humidity Rainfall Rate (Hourly)
00:04 66.2 °F /  19 °C 62.2 °F /  16.8 °C 29.99in /  1015.5hPa NE 1.0mph /  1.6km/h 3.0mph /  4.8km/h 87% 0.00in /  0mm
00:09 66.2 °F /  19 °C 62.2 °F /  16.8 °C 29.99in /  1015.5hPa NE 1.0mph /  1.6km/h 3.0mph /  4.8km/h 87% 0.00in /  0mm
00:14 66.1 °F /  18.9 °C 62.1 °F /  16.7 °C 29.99in /  1015.5hPa NE 1.0mph /  1.6km/h 4.0mph /  6.4km/h 87% 0.00in /  0mm
00:19 66.0 °F /  18.9 °C 62.0 °F /  16.7 °C 29.99in /  1015.5hPa Calm   1.0mph /  1.6km/h 87% 0.00in /  0mm
00:24 65.8 °F /  18.8 °C 61.8 °F /  16.6 °C 29.99in /  1015.5hPa Calm   5.0mph /  8km/h 87% 0.00in /  0mm
00:29 65.7 °F /  18.7 °C 61.7 °F /  16.5 °C 29.99in /  1015.5hPa Calm   3.0mph /  4.8km/h 87% 0.00in /  0mm
00:34 65.6 °F /  18.7 °C 61.6 °F /  16.4 °C 29.99in /  1015.5hPa Calm   4.0mph /  6.4km/h 87% 0.00in /  0mm
00:39 65.5 °F /  18.6 °C 61.5 °F /  16.4 °C 30.00in /  1015.8hPa Calm   5.0mph /  8km/h 87% 0.00in /  0mm
00:44 65.4 °F /  18.6 °C 61.4 °F /  16.3 °C 30.00in /  1015.8hPa ENE 3.0mph /  4.8km/h 3.0mph /  4.8km/h 87% 0.00in /  0mm
00:49 65.2 °F /  18.4 °C 61.2 °F /  16.2 °C 30.00in /  1015.8hPa Calm   3.0mph /  4.8km/h 87% 0.00in /  0mm
00:54 65.1 °F /  18.4 °C 61.1 °F /  16.2 °C 30.00in /  1015.8hPa Calm   3.0mph /  4.8km/h 87% 0.00in /  0mm
00:59 65.0 °F /  18.3 °C 61.4 °F /  16.3 °C 30.00in /  1015.8hPa Calm     88% 0.00in /  0mm
01:04 65.1 °F /  18.4 °C 61.5 °F /  16.4 °C 30.00in /  1015.8hPa NE 1.0mph /  1.6km/h 3.0mph /  4.8km/h 88% 0.00in /  0mm
01:09 64.9 °F /  18.3 °C 61.3 °F /  16.3 °C 30.00in /  1015.8hPa NE 2.0mph /  3.2km/h 4.0mph /  6.4km/h 88% 0.00in /  0mm
01:14 64.9 °F /  18.3 °C 61.3 °F /  16.3 °C 30.00in /  1015.8hPa NE 3.0mph /  4.8km/h 4.0mph /  6.4km/h 88% 0.00in /  0mm
01:19 64.8 °F /  18.2 °C 61.2 °F /  16.2 °C 29.99in /  1015.5hPa NE 2.0mph /  3.2km/h 4.0mph /  6.4km/h 88% 0.00in /  0mm
01:24 64.8 °F /  18.2 °C 61.2 °F /  16.2 °C 30.00in /  1015.8hPa NE 2.0mph /  3.2km/h 4.0mph /  6.4km/h 88% 0.00in /  0mm
01:29 64.5 °F /  18.1 °C 60.9 °F /  16.1 °C 30.00in /  1015.8hPa NE 1.0mph /  1.6km/h 4.0mph /  6.4km/h 88% 0.00in /  0mm
01:34 64.4 °F /  18 °C 60.8 °F /  16 °C 30.00in /  1015.8hPa NE 1.0mph /  1.6km/h 3.0mph /  4.8km/h 88% 0.00in /  0mm
01:39 64.3 °F /  17.9 °C 61.0 °F /  16.1 °C 30.00in /  1015.8hPa ENE 2.0mph /  3.2km/h 5.0mph /  8km/h 89% 0.00in /  0mm
01:44 64.2 °F /  17.9 °C 60.9 °F /  16.1 °C 30.00in /  1015.8hPa Calm   3.0mph /  4.8km/h 89% 0.00in /  0mm
01:49 63.9 °F /  17.7 °C 60.3 °F /  15.7 °C 30.00in /  1015.8hPa Calm     88% 0.00in /  0mm
01:54 63.7 °F /  17.6 °C 60.4 °F /  15.8 °C 30.00in /  1015.8hPa Calm     89% 0.00in /  0mm
01:59 63.4 °F /  17.4 °C 60.1 °F /  15.6 °C 30.00in /  1015.8hPa Calm     89% 0.00in /  0mm
02:04 63.0 °F /  17.2 °C 59.7 °F /  15.4 °C 30.00in /  1015.8hPa Calm     89% 0.00in /  0mm
02:09 62.8 °F /  17.1 °C 59.8 °F /  15.4 °C 30.00in /  1015.8hPa Calm   2.0mph /  3.2km/h 90% 0.00in /  0mm
02:14 63.0 °F /  17.2 °C 60.0 °F /  15.6 °C 30.00in /  1015.8hPa NE 1.0mph /  1.6km/h 4.0mph /  6.4km/h 90% 0.00in /  0mm
02:19 63.1 °F /  17.3 °C 60.1 °F /  15.6 °C 30.00in /  1015.8hPa Calm   3.0mph /  4.8km/h 90% 0.00in /  0mm
02:24 63.1 °F /  17.3 °C 60.1 °F /  15.6 °C 30.00in /  1015.8hPa Calm     90% 0.00in /  0mm
02:29 62.8 °F /  17.1 °C 59.8 °F /  15.4 °C 30.00in /  1015.8hPa Calm     90% 0.00in /  0mm
02:34 62.7 °F /  17.1 °C 60.0 °F /  15.6 °C 30.00in /  1015.8hPa Calm     91% 0.00in /  0mm
02:39 62.7 °F /  17.1 °C 60.0 °F /  15.6 °C 30.00in /  1015.8hPa Calm     91% 0.00in /  0mm
02:44 62.7 °F /  17.1 °C 59.7 °F /  15.4 °C 29.99in /  1015.5hPa Calm     90% 0.00in /  0mm
02:49 62.7 °F /  17.1 °C 60.0 °F /  15.6 °C 29.99in /  1015.5hPa Calm     91% 0.00in /  0mm
02:54 62.7 °F /  17.1 °C 60.0 °F /  15.6 °C 29.99in /  1015.5hPa Calm     91% 0.00in /  0mm
02:59 62.5 °F /  16.9 °C 59.8 °F /  15.4 °C 29.99in /  1015.5hPa Calm     91% 0.00in /  0mm
03:04 62.4 °F /  16.9 °C 59.7 °F /  15.4 °C 29.99in /  1015.5hPa Calm     91% 0.00in /  0mm
03:09 62.4 °F /  16.9 °C 59.7 °F /  15.4 °C 29.99in /  1015.5hPa Calm     91% 0.00in /  0mm
03:14 62.4 °F /  16.9 °C 59.7 °F /  15.4 °C 29.99in /  1015.5hPa Calm     91% 0.00in /  0mm
03:19 62.3 °F /  16.8 °C 59.6 °F /  15.3 °C 29.99in /  1015.5hPa Calm     91% 0.00in /  0mm
03:24 62.0 °F /  16.7 °C 59.3 °F /  15.2 °C 29.99in /  1015.5hPa Calm     91% 0.00in /  0mm
03:29 61.8 °F /  16.6 °C 59.1 °F /  15.1 °C 30.00in /  1015.8hPa Calm     91% 0.00in /  0mm
03:34 61.7 °F /  16.5 °C 58.7 °F /  14.8 °C 30.00in /  1015.8hPa Calm     90% 0.00in /  0mm
03:39 61.5 °F /  16.4 °C 58.8 °F /  14.9 °C 30.00in /  1015.8hPa Calm     91% 0.00in /  0mm
03:44 61.3 °F /  16.3 °C 58.7 °F /  14.8 °C 30.00in /  1015.8hPa Calm     91% 0.00in /  0mm
03:49 61.0 °F /  16.1 °C 58.4 °F /  14.7 °C 30.00in /  1015.8hPa Calm     91% 0.00in /  0mm
03:54 60.9 °F /  16.1 °C 58.3 °F /  14.6 °C 30.00in /  1015.8hPa Calm     91% 0.00in /  0mm
03:59 60.7 °F /  15.9 °C 58.1 °F /  14.5 °C 30.01in /  1016.1hPa Calm     91% 0.00in /  0mm
04:04 60.3 °F /  15.7 °C 57.7 °F /  14.3 °C 30.01in /  1016.1hPa Calm     91% 0.00in /  0mm
04:09 60.2 °F /  15.7 °C 57.6 °F /  14.2 °C 30.01in /  1016.1hPa Calm     91% 0.00in /  0mm
04:14 60.2 °F /  15.7 °C 57.6 °F /  14.2 °C 30.01in /  1016.1hPa Calm     91% 0.00in /  0mm
04:19 60.2 °F /  15.7 °C 57.6 °F /  14.2 °C 30.00in /  1015.8hPa Calm     91% 0.00in /  0mm
04:24 60.0 °F /  15.6 °C 57.4 °F /  14.1 °C 30.01in /  1016.1hPa Calm     91% 0.00in /  0mm
04:29 60.0 °F /  15.6 °C 57.7 °F /  14.3 °C 30.00in /  1015.8hPa Calm     92% 0.00in /  0mm
04:34 59.9 °F /  15.5 °C 57.3 °F /  14.1 °C 30.01in /  1016.1hPa Calm     91% 0.00in /  0mm
04:39 59.9 °F /  15.5 °C 57.6 °F /  14.2 °C 30.01in /  1016.1hPa Calm     92% 0.00in /  0mm
04:44 59.8 °F /  15.4 °C 57.5 °F /  14.2 °C 30.01in /  1016.1hPa Calm     92% 0.00in /  0mm
04:49 60.0 °F /  15.6 °C 57.7 °F /  14.3 °C 30.01in /  1016.1hPa Calm     92% 0.00in /  0mm
04:54 59.9 °F /  15.5 °C 57.6 °F /  14.2 °C 30.01in /  1016.1hPa Calm     92% 0.00in /  0mm
04:59 59.4 °F /  15.2 °C 56.8 °F /  13.8 °C 30.02in /  1016.5hPa Calm     91% 0.00in /  0mm
05:04 59.3 °F /  15.2 °C 57.0 °F /  13.9 °C 30.02in /  1016.5hPa Calm     92% 0.00in /  0mm
05:09 59.3 °F /  15.2 °C 57.0 °F /  13.9 °C 30.02in /  1016.5hPa Calm     92% 0.00in /  0mm
05:14 59.6 °F /  15.3 °C 57.3 °F /  14.1 °C 30.02in /  1016.5hPa Calm     92% 0.00in /  0mm
05:19 59.7 °F /  15.4 °C 57.4 °F /  14.1 °C 30.02in /  1016.5hPa Calm     92% 0.00in /  0mm
05:24 59.8 °F /  15.4 °C 57.5 °F /  14.2 °C 30.02in /  1016.5hPa NE 2.0mph /  3.2km/h 3.0mph /  4.8km/h 92% 0.00in /  0mm
05:29 59.8 °F /  15.4 °C 57.5 °F /  14.2 °C 30.02in /  1016.5hPa NE 1.0mph /  1.6km/h 3.0mph /  4.8km/h 92% 0.00in /  0mm
05:34 59.6 °F /  15.3 °C 57.3 °F /  14.1 °C 30.03in /  1016.8hPa NE 1.0mph /  1.6km/h 3.0mph /  4.8km/h 92% 0.00in /  0mm
05:39 59.6 °F /  15.3 °C 57.3 °F /  14.1 °C 30.03in /  1016.8hPa Calm   2.0mph /  3.2km/h 92% 0.00in /  0mm
05:44 59.5 °F /  15.3 °C 57.2 °F /  14 °C 30.04in /  1017.2hPa Calm   2.0mph /  3.2km/h 92% 0.00in /  0mm
05:49 59.6 °F /  15.3 °C 57.3 °F /  14.1 °C 30.04in /  1017.2hPa Calm     92% 0.00in /  0mm
05:54 59.7 °F /  15.4 °C 57.4 °F /  14.1 °C 30.04in /  1017.2hPa Calm     92% 0.00in /  0mm
05:59 59.9 °F /  15.5 °C 57.6 °F /  14.2 °C 30.04in /  1017.2hPa ENE 2.0mph /  3.2km/h 3.0mph /  4.8km/h 92% 0.00in /  0mm
06:04 59.9 °F /  15.5 °C 57.6 °F /  14.2 °C 30.04in /  1017.2hPa ENE 1.0mph /  1.6km/h 4.0mph /  6.4km/h 92% 0.00in /  0mm
06:09 60.0 °F /  15.6 °C 57.4 °F /  14.1 °C 30.03in /  1016.8hPa ENE 1.0mph /  1.6km/h 4.0mph /  6.4km/h 91% 0.00in /  0mm
06:14 60.1 °F /  15.6 °C 57.5 °F /  14.2 °C 30.03in /  1016.8hPa ENE 1.0mph /  1.6km/h 4.0mph /  6.4km/h 91% 0.00in /  0mm
06:19 60.3 °F /  15.7 °C 57.7 °F /  14.3 °C 30.03in /  1016.8hPa ENE 1.0mph /  1.6km/h 3.0mph /  4.8km/h 91% 0.00in /  0mm
06:24 60.2 °F /  15.7 °C 57.3 °F /  14.1 °C 30.03in /  1016.8hPa Calm   2.0mph /  3.2km/h 90% 0.00in /  0mm
06:29 60.3 °F /  15.7 °C 57.4 °F /  14.1 °C 30.04in /  1017.2hPa Calm   1.0mph /  1.6km/h 90% 0.00in /  0mm
06:34 60.5 °F /  15.8 °C 57.6 °F /  14.2 °C 30.03in /  1016.8hPa ENE 1.0mph /  1.6km/h 4.0mph /  6.4km/h 90% 0.00in /  0mm
06:39 60.8 °F /  16 °C 57.5 °F /  14.2 °C 30.04in /  1017.2hPa ENE 1.0mph /  1.6km/h 4.0mph /  6.4km/h 89% 0.00in /  0mm
06:44 61.0 °F /  16.1 °C 57.7 °F /  14.3 °C 30.04in /  1017.2hPa Calm   1.0mph /  1.6km/h 89% 0.00in /  0mm
06:49 61.4 °F /  16.3 °C 57.8 °F /  14.3 °C 30.05in /  1017.5hPa Calm     88% 0.00in /  0mm
06:54 61.6 °F /  16.4 °C 57.4 °F /  14.1 °C 30.05in /  1017.5hPa Calm     86% 0.00in /  0mm
06:59 61.9 °F /  16.6 °C 57.3 °F /  14.1 °C 30.05in /  1017.5hPa ENE 3.0mph /  4.8km/h 5.0mph /  8km/h 85% 0.00in /  0mm
07:04 62.2 °F /  16.8 °C 57.6 °F /  14.2 °C 30.06in /  1017.8hPa NNE 2.0mph /  3.2km/h 5.0mph /  8km/h 85% 0.00in /  0mm
07:09 62.0 °F /  16.7 °C 57.8 °F /  14.3 °C 30.06in /  1017.8hPa NE 2.0mph /  3.2km/h 5.0mph /  8km/h 86% 0.00in /  0mm
07:14 62.2 °F /  16.8 °C 58.0 °F /  14.4 °C 30.06in /  1017.8hPa NE 2.0mph /  3.2km/h 6.0mph /  9.7km/h 86% 0.00in /  0mm
07:19 62.2 °F /  16.8 °C 58.0 °F /  14.4 °C 30.06in /  1017.8hPa NE 3.0mph /  4.8km/h 7.0mph /  11.3km/h 86% 0.00in /  0mm
07:24 62.2 °F /  16.8 °C 58.0 °F /  14.4 °C 30.06in /  1017.8hPa NE 4.0mph /  6.4km/h 9.0mph /  14.5km/h 86% 0.00in /  0mm
07:29 62.4 °F /  16.9 °C 58.2 °F /  14.6 °C 30.06in /  1017.8hPa NE 2.0mph /  3.2km/h 7.0mph /  11.3km/h 86% 0.00in /  0mm
07:34 62.4 °F /  16.9 °C 58.2 °F /  14.6 °C 30.06in /  1017.8hPa NE 2.0mph /  3.2km/h 10.0mph /  16.1km/h 86% 0.00in /  0mm
07:39 62.6 °F /  17 °C 58.4 °F /  14.7 °C 30.06in /  1017.8hPa NE 4.0mph /  6.4km/h 10.0mph /  16.1km/h 86% 0.00in /  0mm
07:44 62.9 °F /  17.2 °C 58.6 °F /  14.8 °C 30.05in /  1017.5hPa NE 4.0mph /  6.4km/h 7.0mph /  11.3km/h 86% 0.00in /  0mm
07:49 63.1 °F /  17.3 °C 58.2 °F /  14.6 °C 30.05in /  1017.5hPa ENE 11.0mph /  17.7km/h 11.0mph /  17.7km/h 84% 0.00in /  0mm
07:54 63.0 °F /  17.2 °C 58.1 °F /  14.5 °C 30.06in /  1017.8hPa East 5.0mph /  8km/h 11.0mph /  17.7km/h 84% 0.00in /  0mm
07:59 63.3 °F /  17.4 °C 58.4 °F /  14.7 °C 30.06in /  1017.8hPa ENE 3.0mph /  4.8km/h 8.0mph /  12.9km/h 84% 0.00in /  0mm
08:04 63.8 °F /  17.7 °C 58.9 °F /  14.9 °C 30.06in /  1017.8hPa North 2.0mph /  3.2km/h 8.0mph /  12.9km/h 84% 0.00in /  0mm
08:09 64.2 °F /  17.9 °C 58.9 °F /  14.9 °C 30.06in /  1017.8hPa ENE 4.0mph /  6.4km/h 9.0mph /  14.5km/h 83% 0.00in /  0mm
08:14 64.9 °F /  18.3 °C 59.3 °F /  15.2 °C 30.06in /  1017.8hPa ENE 4.0mph /  6.4km/h 9.0mph /  14.5km/h 82% 0.00in /  0mm
08:19 65.4 °F /  18.6 °C 59.8 °F /  15.4 °C 30.06in /  1017.8hPa NE 3.0mph /  4.8km/h 8.0mph /  12.9km/h 82% 0.00in /  0mm
08:24 65.6 °F /  18.7 °C 59.6 °F /  15.3 °C 30.06in /  1017.8hPa NE 4.0mph /  6.4km/h 9.0mph /  14.5km/h 81% 0.00in /  0mm
08:29 66.1 °F /  18.9 °C 59.4 °F /  15.2 °C 30.07in /  1018.2hPa NE 5.0mph /  8km/h 10.0mph /  16.1km/h 79% 0.00in /  0mm
08:34 66.7 °F /  19.3 °C 60.0 °F /  15.6 °C 30.06in /  1017.8hPa ENE 5.0mph /  8km/h 10.0mph /  16.1km/h 79% 0.00in /  0mm
08:39 67.0 °F /  19.4 °C 59.9 °F /  15.5 °C 30.06in /  1017.8hPa NE 1.0mph /  1.6km/h 11.0mph /  17.7km/h 78% 0.00in /  0mm
08:44 67.2 °F /  19.6 °C 60.1 °F /  15.6 °C 30.07in /  1018.2hPa ENE 8.0mph /  12.9km/h 11.0mph /  17.7km/h 78% 0.00in /  0mm
08:49 67.0 °F /  19.4 °C 59.2 °F /  15.1 °C 30.07in /  1018.2hPa ENE 7.0mph /  11.3km/h 13.0mph /  20.9km/h 76% 0.00in /  0mm
08:54 67.0 °F /  19.4 °C 59.2 °F /  15.1 °C 30.07in /  1018.2hPa ENE 8.0mph /  12.9km/h 11.0mph /  17.7km/h 76% 0.00in /  0mm
08:59 67.3 °F /  19.6 °C 59.1 °F /  15.1 °C 30.07in /  1018.2hPa East 7.0mph /  11.3km/h 10.0mph /  16.1km/h 75% 0.00in /  0mm
09:04 68.1 °F /  20.1 °C 59.5 °F /  15.3 °C 30.07in /  1018.2hPa ESE 9.0mph /  14.5km/h 12.0mph /  19.3km/h 74% 0.00in /  0mm
09:09 68.5 °F /  20.3 °C 59.1 °F /  15.1 °C 30.07in /  1018.2hPa NE 2.0mph /  3.2km/h 12.0mph /  19.3km/h 72% 0.00in /  0mm
09:14 69.0 °F /  20.6 °C 59.2 °F /  15.1 °C 30.07in /  1018.2hPa NE 5.0mph /  8km/h 12.0mph /  19.3km/h 71% 0.00in /  0mm
09:19 69.0 °F /  20.6 °C 58.8 °F /  14.9 °C 30.07in /  1018.2hPa NE 5.0mph /  8km/h 10.0mph /  16.1km/h 70% 0.00in /  0mm
09:24 69.2 °F /  20.7 °C 59.0 °F /  15 °C 30.07in /  1018.2hPa NE 5.0mph /  8km/h 10.0mph /  16.1km/h 70% 0.00in /  0mm
09:29 69.2 °F /  20.7 °C 58.2 °F /  14.6 °C 30.08in /  1018.5hPa NE 5.0mph /  8km/h 10.0mph /  16.1km/h 68% 0.00in /  0mm
09:34 69.2 °F /  20.7 °C 57.4 °F /  14.1 °C 30.08in /  1018.5hPa NE 4.0mph /  6.4km/h 12.0mph /  19.3km/h 66% 0.00in /  0mm
09:39 69.2 °F /  20.7 °C 56.9 °F /  13.8 °C 30.08in /  1018.5hPa NNE 3.0mph /  4.8km/h 13.0mph /  20.9km/h 65% 0.00in /  0mm
09:44 69.7 °F /  20.9 °C 57.4 °F /  14.1 °C 30.08in /  1018.5hPa NE 5.0mph /  8km/h 13.0mph /  20.9km/h 65% 0.00in /  0mm
09:49 69.8 °F /  21 °C 57.1 °F /  13.9 °C 30.07in /  1018.2hPa NE 6.0mph /  9.7km/h 11.0mph /  17.7km/h 64% 0.00in /  0mm
09:54 69.8 °F /  21 °C 57.1 °F /  13.9 °C 30.07in /  1018.2hPa NE 6.0mph /  9.7km/h 13.0mph /  20.9km/h 64% 0.00in /  0mm
09:59 70.0 °F /  21.1 °C 56.8 °F /  13.8 °C 30.08in /  1018.5hPa ESE 5.0mph /  8km/h 12.0mph /  19.3km/h 63% 0.00in /  0mm
10:04 70.6 °F /  21.4 °C 58.3 °F /  14.6 °C 30.08in /  1018.5hPa NE 3.0mph /  4.8km/h 8.0mph /  12.9km/h 65% 0.00in /  0mm
10:09 70.5 °F /  21.4 °C 56.9 °F /  13.8 °C 30.07in /  1018.2hPa NE 5.0mph /  8km/h 15.0mph /  24.1km/h 62% 0.00in /  0mm
10:14 70.6 °F /  21.4 °C 56.9 °F /  13.8 °C 30.07in /  1018.2hPa NE 6.0mph /  9.7km/h 15.0mph /  24.1km/h 62% 0.00in /  0mm
10:19 71.4 °F /  21.9 °C 57.7 °F /  14.3 °C 30.07in /  1018.2hPa ENE 5.0mph /  8km/h 9.0mph /  14.5km/h 62% 0.00in /  0mm
10:24 71.7 °F /  22.1 °C 57.1 °F /  13.9 °C 30.07in /  1018.2hPa NE 5.0mph /  8km/h 12.0mph /  19.3km/h 60% 0.00in /  0mm
10:29 71.6 °F /  22 °C 55.6 °F /  13.1 °C 30.07in /  1018.2hPa NE 6.0mph /  9.7km/h 12.0mph /  19.3km/h 57% 0.00in /  0mm
10:34 71.9 °F /  22.2 °C 56.3 °F /  13.5 °C 30.06in /  1017.8hPa NE 5.0mph /  8km/h 10.0mph /  16.1km/h 58% 0.00in /  0mm
10:39 72.5 °F /  22.5 °C 55.9 °F /  13.3 °C 30.06in /  1017.8hPa NNE 11.0mph /  17.7km/h 14.0mph /  22.5km/h 56% 0.00in /  0mm
10:44 72.5 °F /  22.5 °C 56.4 °F /  13.6 °C 30.06in /  1017.8hPa East 6.0mph /  9.7km/h 11.0mph /  17.7km/h 57% 0.00in /  0mm
10:49 73.0 °F /  22.8 °C 56.4 °F /  13.6 °C 30.06in /  1017.8hPa NE 6.0mph /  9.7km/h 11.0mph /  17.7km/h 56% 0.00in /  0mm
10:54 73.1 °F /  22.8 °C 56.5 °F /  13.6 °C 30.06in /  1017.8hPa NE 5.0mph /  8km/h 10.0mph /  16.1km/h 56% 0.00in /  0mm
10:59 73.5 °F /  23.1 °C 56.3 °F /  13.5 °C 30.06in /  1017.8hPa NNE 5.0mph /  8km/h 10.0mph /  16.1km/h 55% 0.00in /  0mm
11:04 74.3 °F /  23.5 °C 57.6 °F /  14.2 °C 30.06in /  1017.8hPa SSE 2.0mph /  3.2km/h 12.0mph /  19.3km/h 56% 0.00in /  0mm
11:09 74.3 °F /  23.5 °C 55.0 °F /  12.8 °C 30.05in /  1017.5hPa ENE 8.0mph /  12.9km/h 12.0mph /  19.3km/h 51% 0.00in /  0mm
11:14 74.0 °F /  23.3 °C 55.3 °F /  12.9 °C 30.05in /  1017.5hPa NE 5.0mph /  8km/h 11.0mph /  17.7km/h 52% 0.00in /  0mm
11:19 74.5 °F /  23.6 °C 57.3 °F /  14.1 °C 30.05in /  1017.5hPa ENE 3.0mph /  4.8km/h 10.0mph /  16.1km/h 55% 0.00in /  0mm
11:24 74.6 °F /  23.7 °C 56.9 °F /  13.8 °C 30.05in /  1017.5hPa ENE 6.0mph /  9.7km/h 12.0mph /  19.3km/h 54% 0.00in /  0mm
11:29 75.1 °F /  23.9 °C 56.3 °F /  13.5 °C 30.05in /  1017.5hPa ENE 4.0mph /  6.4km/h 13.0mph /  20.9km/h 52% 0.00in /  0mm
11:34 74.8 °F /  23.8 °C 57.0 °F /  13.9 °C 30.05in /  1017.5hPa NE 5.0mph /  8km/h 13.0mph /  20.9km/h 54% 0.00in /  0mm
11:39 75.7 °F /  24.3 °C 57.9 °F /  14.4 °C 30.05in /  1017.5hPa NE 3.0mph /  4.8km/h 10.0mph /  16.1km/h 54% 0.00in /  0mm
11:44 76.2 °F /  24.6 °C 56.7 °F /  13.7 °C 30.05in /  1017.5hPa ENE 5.0mph /  8km/h 8.0mph /  12.9km/h 51% 0.00in /  0mm
11:49 76.0 °F /  24.4 °C 56.0 °F /  13.3 °C 30.06in /  1017.8hPa ENE 5.0mph /  8km/h 13.0mph /  20.9km/h 50% 0.00in /  0mm
11:54 75.8 °F /  24.3 °C 54.7 °F /  12.6 °C 30.06in /  1017.8hPa ENE 6.0mph /  9.7km/h 14.0mph /  22.5km/h 48% 0.00in /  0mm
11:59 76.1 °F /  24.5 °C 56.1 °F /  13.4 °C 30.05in /  1017.5hPa ENE 5.0mph /  8km/h 14.0mph /  22.5km/h 50% 0.00in /  0mm
12:04 76.4 °F /  24.7 °C 55.3 °F /  12.9 °C 30.05in /  1017.5hPa SE 2.0mph /  3.2km/h 10.0mph /  16.1km/h 48% 0.00in /  0mm
12:09 76.7 °F /  24.8 °C 56.7 °F /  13.7 °C 30.05in /  1017.5hPa East 3.0mph /  4.8km/h 8.0mph /  12.9km/h 50% 0.00in /  0mm
12:14 77.1 °F /  25.1 °C 55.9 °F /  13.3 °C 30.05in /  1017.5hPa NE 4.0mph /  6.4km/h 14.0mph /  22.5km/h 48% 0.00in /  0mm
12:19 76.7 °F /  24.8 °C 54.4 °F /  12.4 °C 30.05in /  1017.5hPa ENE 6.0mph /  9.7km/h 16.0mph /  25.7km/h 46% 0.00in /  0mm
12:24 76.9 °F /  24.9 °C 56.3 °F /  13.5 °C 30.05in /  1017.5hPa Calm   8.0mph /  12.9km/h 49% 0.00in /  0mm
12:29 76.8 °F /  24.9 °C 56.8 °F /  13.8 °C 30.05in /  1017.5hPa ENE 3.0mph /  4.8km/h 10.0mph /  16.1km/h 50% 0.00in /  0mm
12:34 77.2 °F /  25.1 °C 56.6 °F /  13.7 °C 30.04in /  1017.2hPa NE 3.0mph /  4.8km/h 14.0mph /  22.5km/h 49% 0.00in /  0mm
12:39 77.2 °F /  25.1 °C 55.4 °F /  13 °C 30.04in /  1017.2hPa NE 4.0mph /  6.4km/h 11.0mph /  17.7km/h 47% 0.00in /  0mm
12:44 77.3 °F /  25.2 °C 55.5 °F /  13.1 °C 30.04in /  1017.2hPa ENE 6.0mph /  9.7km/h 11.0mph /  17.7km/h 47% 0.00in /  0mm
12:49 78.1 °F /  25.6 °C 55.0 °F /  12.8 °C 30.03in /  1016.8hPa ENE 5.0mph /  8km/h 11.0mph /  17.7km/h 45% 0.00in /  0mm
12:54 78.3 °F /  25.7 °C 55.8 °F /  13.2 °C 30.03in /  1016.8hPa ENE 5.0mph /  8km/h 10.0mph /  16.1km/h 46% 0.00in /  0mm
12:59 78.4 °F /  25.8 °C 55.9 °F /  13.3 °C 30.03in /  1016.8hPa ENE 6.0mph /  9.7km/h 11.0mph /  17.7km/h 46% 0.00in /  0mm
13:04 77.8 °F /  25.4 °C 56.0 °F /  13.3 °C 30.03in /  1016.8hPa ENE 5.0mph /  8km/h 11.0mph /  17.7km/h 47% 0.00in /  0mm
13:09 78.0 °F /  25.6 °C 56.1 °F /  13.4 °C 30.03in /  1016.8hPa Calm   14.0mph /  22.5km/h 47% 0.00in /  0mm
13:14 78.8 °F /  26 °C 55.0 °F /  12.8 °C 30.03in /  1016.8hPa ENE 6.0mph /  9.7km/h 14.0mph /  22.5km/h 44% 0.00in /  0mm
13:19 78.4 °F /  25.8 °C 55.3 °F /  12.9 °C 30.03in /  1016.8hPa ENE 6.0mph /  9.7km/h 14.0mph /  22.5km/h 45% 0.00in /  0mm
13:24 78.9 °F /  26.1 °C 56.4 °F /  13.6 °C 30.03in /  1016.8hPa East 2.0mph /  3.2km/h 9.0mph /  14.5km/h 46% 0.00in /  0mm
13:29 79.5 °F /  26.4 °C 55.0 °F /  12.8 °C 30.03in /  1016.8hPa NE 4.0mph /  6.4km/h 7.0mph /  11.3km/h 43% 0.00in /  0mm
13:34 79.1 °F /  26.2 °C 55.3 °F /  12.9 °C 30.03in /  1016.8hPa NNE 5.0mph /  8km/h 11.0mph /  17.7km/h 44% 0.00in /  0mm
13:39 78.6 °F /  25.9 °C 56.7 °F /  13.7 °C 30.03in /  1016.8hPa NE 4.0mph /  6.4km/h 12.0mph /  19.3km/h 47% 0.00in /  0mm
13:44 79.0 °F /  26.1 °C 57.6 °F /  14.2 °C 30.03in /  1016.8hPa NE 4.0mph /  6.4km/h 12.0mph /  19.3km/h 48% 0.00in /  0mm
13:49 78.9 °F /  26.1 °C 53.9 °F /  12.2 °C 30.03in /  1016.8hPa NE 5.0mph /  8km/h 13.0mph /  20.9km/h 42% 0.00in /  0mm
13:54 79.2 °F /  26.2 °C 56.0 °F /  13.3 °C 30.02in /  1016.5hPa NE 4.0mph /  6.4km/h 13.0mph /  20.9km/h 45% 0.00in /  0mm
13:59 79.6 °F /  26.4 °C 55.1 °F /  12.8 °C 30.02in /  1016.5hPa NE 3.0mph /  4.8km/h 9.0mph /  14.5km/h 43% 0.00in /  0mm
14:04 79.5 °F /  26.4 °C 54.4 °F /  12.4 °C 30.02in /  1016.5hPa NE 11.0mph /  17.7km/h 11.0mph /  17.7km/h 42% 0.00in /  0mm
14:09 79.4 °F /  26.3 °C 55.6 °F /  13.1 °C 30.02in /  1016.5hPa NE 6.0mph /  9.7km/h 14.0mph /  22.5km/h 44% 0.00in /  0mm
14:14 79.6 °F /  26.4 °C 55.8 °F /  13.2 °C 30.02in /  1016.5hPa ENE 6.0mph /  9.7km/h 14.0mph /  22.5km/h 44% 0.00in /  0mm
14:19 79.4 °F /  26.3 °C 56.8 °F /  13.8 °C 30.02in /  1016.5hPa North 4.0mph /  6.4km/h 14.0mph /  22.5km/h 46% 0.00in /  0mm
14:24 79.7 °F /  26.5 °C 56.5 °F /  13.6 °C 30.02in /  1016.5hPa NE 4.0mph /  6.4km/h 14.0mph /  22.5km/h 45% 0.00in /  0mm
14:29 80.1 °F /  26.7 °C 54.3 °F /  12.4 °C 30.02in /  1016.5hPa NE 4.0mph /  6.4km/h 13.0mph /  20.9km/h 41% 0.00in /  0mm
14:34 79.8 °F /  26.6 °C 54.0 °F /  12.2 °C 30.02in /  1016.5hPa NNE 3.0mph /  4.8km/h 11.0mph /  17.7km/h 41% 0.00in /  0mm
14:39 79.9 °F /  26.6 °C 52.7 °F /  11.5 °C 30.02in /  1016.5hPa NE 5.0mph /  8km/h 12.0mph /  19.3km/h 39% 0.00in /  0mm
14:44 79.9 °F /  26.6 °C 56.0 °F /  13.3 °C 30.02in /  1016.5hPa NE 5.0mph /  8km/h 12.0mph /  19.3km/h 44% 0.00in /  0mm
14:49 80.7 °F /  27.1 °C 56.8 °F /  13.8 °C 30.02in /  1016.5hPa NE 4.0mph /  6.4km/h 10.0mph /  16.1km/h 44% 0.00in /  0mm
14:54 80.9 °F /  27.2 °C 54.3 °F /  12.4 °C 30.02in /  1016.5hPa ENE 4.0mph /  6.4km/h 10.0mph /  16.1km/h 40% 0.00in /  0mm
14:59 80.3 °F /  26.8 °C 55.1 °F /  12.8 °C 30.02in /  1016.5hPa NNE 2.0mph /  3.2km/h 9.0mph /  14.5km/h 42% 0.00in /  0mm
15:04 80.4 °F /  26.9 °C 54.5 °F /  12.5 °C 30.02in /  1016.5hPa SE 4.0mph /  6.4km/h 10.0mph /  16.1km/h 41% 0.00in /  0mm
15:09 80.5 °F /  26.9 °C 56.6 °F /  13.7 °C 30.02in /  1016.5hPa NE 4.0mph /  6.4km/h 13.0mph /  20.9km/h 44% 0.00in /  0mm
15:14 80.4 °F /  26.9 °C 55.2 °F /  12.9 °C 30.02in /  1016.5hPa ENE 5.0mph /  8km/h 13.0mph /  20.9km/h 42% 0.00in /  0mm
15:19 80.9 °F /  27.2 °C 54.3 °F /  12.4 °C 30.01in /  1016.1hPa SE 3.0mph /  4.8km/h 12.0mph /  19.3km/h 40% 0.00in /  0mm
15:24 81.0 °F /  27.2 °C 56.4 °F /  13.6 °C 30.02in /  1016.5hPa East 3.0mph /  4.8km/h 10.0mph /  16.1km/h 43% 0.00in /  0mm
15:29 80.9 °F /  27.2 °C 52.9 °F /  11.6 °C 30.02in /  1016.5hPa SE 1.0mph /  1.6km/h 10.0mph /  16.1km/h 38% 0.00in /  0mm
15:34 80.3 °F /  26.8 °C 53.1 °F /  11.7 °C 30.02in /  1016.5hPa NNE 8.0mph /  12.9km/h 14.0mph /  22.5km/h 39% 0.00in /  0mm
15:39 80.2 °F /  26.8 °C 53.0 °F /  11.7 °C 30.02in /  1016.5hPa NE 5.0mph /  8km/h 14.0mph /  22.5km/h 39% 0.00in /  0mm
15:44 80.2 °F /  26.8 °C 55.0 °F /  12.8 °C 30.01in /  1016.1hPa NE 5.0mph /  8km/h 12.0mph /  19.3km/h 42% 0.00in /  0mm
15:49 80.6 °F /  27 °C 52.6 °F /  11.4 °C 30.02in /  1016.5hPa NE 5.0mph /  8km/h 9.0mph /  14.5km/h 38% 0.00in /  0mm
15:54 80.5 °F /  26.9 °C 53.3 °F /  11.8 °C 30.01in /  1016.1hPa NE 5.0mph /  8km/h 12.0mph /  19.3km/h 39% 0.00in /  0mm
15:59 80.4 °F /  26.9 °C 55.9 °F /  13.3 °C 30.01in /  1016.1hPa North 2.0mph /  3.2km/h 12.0mph /  19.3km/h 43% 0.00in /  0mm
16:04 80.4 °F /  26.9 °C 52.5 °F /  11.4 °C 30.01in /  1016.1hPa NE 8.0mph /  12.9km/h 11.0mph /  17.7km/h 38% 0.00in /  0mm
16:09 80.8 °F /  27.1 °C 53.5 °F /  11.9 °C 30.01in /  1016.1hPa ENE 5.0mph /  8km/h 11.0mph /  17.7km/h 39% 0.00in /  0mm
16:14 81.2 °F /  27.3 °C 52.4 °F /  11.3 °C 30.01in /  1016.1hPa ENE 5.0mph /  8km/h 11.0mph /  17.7km/h 37% 0.00in /  0mm
16:19 81.1 °F /  27.3 °C 53.1 °F /  11.7 °C 30.00in /  1015.8hPa SE 2.0mph /  3.2km/h 8.0mph /  12.9km/h 38% 0.00in /  0mm
16:24 80.9 °F /  27.2 °C 53.6 °F /  12 °C 30.00in /  1015.8hPa NE 6.0mph /  9.7km/h 10.0mph /  16.1km/h 39% 0.00in /  0mm
16:29 80.7 °F /  27.1 °C 52.0 °F /  11.1 °C 30.00in /  1015.8hPa ENE 7.0mph /  11.3km/h 10.0mph /  16.1km/h 37% 0.00in /  0mm
16:34 80.5 °F /  26.9 °C 54.6 °F /  12.6 °C 30.00in /  1015.8hPa NNE 5.0mph /  8km/h 14.0mph /  22.5km/h 41% 0.00in /  0mm
16:39 80.3 °F /  26.8 °C 55.1 °F /  12.8 °C 30.00in /  1015.8hPa NE 6.0mph /  9.7km/h 14.0mph /  22.5km/h 42% 0.00in /  0mm
16:44 80.3 °F /  26.8 °C 55.8 °F /  13.2 °C 30.00in /  1015.8hPa NE 5.0mph /  8km/h 11.0mph /  17.7km/h 43% 0.00in /  0mm
16:49 79.6 °F /  26.4 °C 56.4 °F /  13.6 °C 30.00in /  1015.8hPa NE 4.0mph /  6.4km/h 11.0mph /  17.7km/h 45% 0.00in /  0mm
16:54 79.5 °F /  26.4 °C 55.7 °F /  13.2 °C 30.00in /  1015.8hPa NNE 4.0mph /  6.4km/h 10.0mph /  16.1km/h 44% 0.00in /  0mm
16:59 79.7 °F /  26.5 °C 56.5 °F /  13.6 °C 30.00in /  1015.8hPa North 4.0mph /  6.4km/h 9.0mph /  14.5km/h 45% 0.00in /  0mm
17:04 79.7 °F /  26.5 °C 56.5 °F /  13.6 °C 29.99in /  1015.5hPa ENE 9.0mph /  14.5km/h 10.0mph /  16.1km/h 45% 0.00in /  0mm
17:09 79.9 °F /  26.6 °C 54.8 °F /  12.7 °C 29.99in /  1015.5hPa NE 5.0mph /  8km/h 11.0mph /  17.7km/h 42% 0.00in /  0mm
17:14 80.1 °F /  26.7 °C 56.2 °F /  13.4 °C 29.99in /  1015.5hPa NE 5.0mph /  8km/h 11.0mph /  17.7km/h 44% 0.00in /  0mm
17:19 80.0 °F /  26.7 °C 55.5 °F /  13.1 °C 29.99in /  1015.5hPa NE 5.0mph /  8km/h 11.0mph /  17.7km/h 43% 0.00in /  0mm
17:24 79.6 °F /  26.4 °C 54.5 °F /  12.5 °C 29.99in /  1015.5hPa NE 6.0mph /  9.7km/h 12.0mph /  19.3km/h 42% 0.00in /  0mm
17:29 79.8 °F /  26.6 °C 55.9 °F /  13.3 °C 29.99in /  1015.5hPa NE 8.0mph /  12.9km/h 11.0mph /  17.7km/h 44% 0.00in /  0mm
17:34 79.3 °F /  26.3 °C 54.9 °F /  12.7 °C 29.98in /  1015.1hPa NE 2.0mph /  3.2km/h 13.0mph /  20.9km/h 43% 0.00in /  0mm
17:39 79.1 °F /  26.2 °C 54.7 °F /  12.6 °C 29.98in /  1015.1hPa NE 6.0mph /  9.7km/h 13.0mph /  20.9km/h 43% 0.00in /  0mm
17:44 78.7 °F /  25.9 °C 55.0 °F /  12.8 °C 29.98in /  1015.1hPa NE 4.0mph /  6.4km/h 13.0mph /  20.9km/h 44% 0.00in /  0mm
17:49 78.4 °F /  25.8 °C 54.7 °F /  12.6 °C 29.98in /  1015.1hPa NNE 3.0mph /  4.8km/h 16.0mph /  25.7km/h 44% 0.00in /  0mm
17:54 78.4 °F /  25.8 °C 54.0 °F /  12.2 °C 29.98in /  1015.1hPa ENE 9.0mph /  14.5km/h 11.0mph /  17.7km/h 43% 0.00in /  0mm
17:59 77.9 °F /  25.5 °C 54.2 °F /  12.3 °C 29.98in /  1015.1hPa ENE 9.0mph /  14.5km/h 13.0mph /  20.9km/h 44% 0.00in /  0mm
18:04 77.9 °F /  25.5 °C 53.0 °F /  11.7 °C 29.98in /  1015.1hPa NE 13.0mph /  20.9km/h 15.0mph /  24.1km/h 42% 0.00in /  0mm
18:09 77.8 °F /  25.4 °C 52.9 °F /  11.6 °C 29.98in /  1015.1hPa NE 7.0mph /  11.3km/h 15.0mph /  24.1km/h 42% 0.00in /  0mm
18:14 77.4 °F /  25.2 °C 52.5 °F /  11.4 °C 29.97in /  1014.8hPa ENE 8.0mph /  12.9km/h 14.0mph /  22.5km/h 42% 0.00in /  0mm
18:19 77.0 °F /  25 °C 52.1 °F /  11.2 °C 29.97in /  1014.8hPa NE 3.0mph /  4.8km/h 17.0mph /  27.4km/h 42% 0.00in /  0mm
18:24 77.1 °F /  25.1 °C 51.6 °F /  10.9 °C 29.97in /  1014.8hPa NE 13.0mph /  20.9km/h 14.0mph /  22.5km/h 41% 0.00in /  0mm
18:29 76.7 °F /  24.8 °C 51.2 °F /  10.7 °C 29.97in /  1014.8hPa East 13.0mph /  20.9km/h 17.0mph /  27.4km/h 41% 0.00in /  0mm
18:34 76.6 °F /  24.8 °C 51.1 °F /  10.6 °C 29.97in /  1014.8hPa NE 8.0mph /  12.9km/h 17.0mph /  27.4km/h 41% 0.00in /  0mm
18:39 76.4 °F /  24.7 °C 50.3 °F /  10.2 °C 29.97in /  1014.8hPa NE 8.0mph /  12.9km/h 18.0mph /  29km/h 40% 0.00in /  0mm
18:44 76.1 °F /  24.5 °C 50.7 °F /  10.4 °C 29.97in /  1014.8hPa NE 7.0mph /  11.3km/h 18.0mph /  29km/h 41% 0.00in /  0mm
18:49 76.0 °F /  24.4 °C 49.9 °F /  9.9 °C 29.97in /  1014.8hPa NE 8.0mph /  12.9km/h 16.0mph /  25.7km/h 40% 0.00in /  0mm
18:54 75.7 °F /  24.3 °C 49.7 °F /  9.8 °C 29.97in /  1014.8hPa ENE 10.0mph /  16.1km/h 19.0mph /  30.6km/h 40% 0.00in /  0mm
18:59 75.4 °F /  24.1 °C 49.4 °F /  9.7 °C 29.97in /  1014.8hPa ENE 10.0mph /  16.1km/h 19.0mph /  30.6km/h 40% 0.00in /  0mm
19:04 75.2 °F /  24 °C 49.2 °F /  9.6 °C 29.97in /  1014.8hPa ENE 9.0mph /  14.5km/h 17.0mph /  27.4km/h 40% 0.00in /  0mm
19:09 74.8 °F /  23.8 °C 48.9 °F /  9.4 °C 29.97in /  1014.8hPa NE 10.0mph /  16.1km/h 18.0mph /  29km/h 40% 0.00in /  0mm
19:14 74.7 °F /  23.7 °C 48.8 °F /  9.3 °C 29.97in /  1014.8hPa ENE 8.0mph /  12.9km/h 15.0mph /  24.1km/h 40% 0.00in /  0mm
19:19 74.5 °F /  23.6 °C 48.6 °F /  9.2 °C 29.97in /  1014.8hPa ENE 4.0mph /  6.4km/h 16.0mph /  25.7km/h 40% 0.00in /  0mm
19:24 74.5 °F /  23.6 °C 48.6 °F /  9.2 °C 29.97in /  1014.8hPa NE 7.0mph /  11.3km/h 13.0mph /  20.9km/h 40% 0.00in /  0mm
19:29 74.2 °F /  23.4 °C 48.3 °F /  9.1 °C 29.97in /  1014.8hPa NE 11.0mph /  17.7km/h 16.0mph /  25.7km/h 40% 0.00in /  0mm
19:34 73.9 °F /  23.3 °C 48.7 °F /  9.3 °C 29.97in /  1014.8hPa ENE 7.0mph /  11.3km/h 16.0mph /  25.7km/h 41% 0.00in /  0mm
19:39 73.7 °F /  23.2 °C 48.5 °F /  9.2 °C 29.97in /  1014.8hPa ENE 7.0mph /  11.3km/h 15.0mph /  24.1km/h 41% 0.00in /  0mm
19:44 73.5 °F /  23.1 °C 47.0 °F /  8.3 °C 29.97in /  1014.8hPa ENE 7.0mph /  11.3km/h 18.0mph /  29km/h 39% 0.00in /  0mm
19:49 73.2 °F /  22.9 °C 46.8 °F /  8.2 °C 29.97in /  1014.8hPa ENE 6.0mph /  9.7km/h 18.0mph /  29km/h 39% 0.00in /  0mm
19:54 72.9 °F /  22.7 °C 46.5 °F /  8.1 °C 29.97in /  1014.8hPa ENE 7.0mph /  11.3km/h 15.0mph /  24.1km/h 39% 0.00in /  0mm
19:59 72.5 °F /  22.5 °C 46.1 °F /  7.8 °C 29.97in /  1014.8hPa NE 6.0mph /  9.7km/h 16.0mph /  25.7km/h 39% 0.00in /  0mm
20:04 72.1 °F /  22.3 °C 46.4 °F /  8 °C 29.97in /  1014.8hPa ENE 9.0mph /  14.5km/h 15.0mph /  24.1km/h 40% 0.00in /  0mm
20:09 71.9 °F /  22.2 °C 46.3 °F /  7.9 °C 29.97in /  1014.8hPa NNE 10.0mph /  16.1km/h 14.0mph /  22.5km/h 40% 0.00in /  0mm
20:14 71.6 °F /  22 °C 46.0 °F /  7.8 °C 29.96in /  1014.4hPa NNE 8.0mph /  12.9km/h 13.0mph /  20.9km/h 40% 0.00in /  0mm
20:19 71.3 °F /  21.8 °C 46.4 °F /  8 °C 29.96in /  1014.4hPa NE 6.0mph /  9.7km/h 11.0mph /  17.7km/h 41% 0.00in /  0mm
20:24 71.1 °F /  21.7 °C 45.5 °F /  7.5 °C 29.97in /  1014.8hPa East 7.0mph /  11.3km/h 10.0mph /  16.1km/h 40% 0.00in /  0mm
20:29 70.8 °F /  21.6 °C 44.6 °F /  7 °C 29.97in /  1014.8hPa ENE 6.0mph /  9.7km/h 10.0mph /  16.1km/h 39% 0.00in /  0mm
20:34 70.5 °F /  21.4 °C 44.3 °F /  6.8 °C 29.97in /  1014.8hPa ENE 5.0mph /  8km/h 12.0mph /  19.3km/h 39% 0.00in /  0mm
20:39 70.2 °F /  21.2 °C 44.1 °F /  6.7 °C 29.97in /  1014.8hPa ENE 5.0mph /  8km/h 12.0mph /  19.3km/h 39% 0.00in /  0mm
20:44 69.9 °F /  21.1 °C 44.5 °F /  6.9 °C 29.97in /  1014.8hPa East 6.0mph /  9.7km/h 10.0mph /  16.1km/h 40% 0.00in /  0mm
20:49 69.6 °F /  20.9 °C 43.5 °F /  6.4 °C 29.98in /  1015.1hPa ENE 4.0mph /  6.4km/h 10.0mph /  16.1km/h 39% 0.00in /  0mm
20:54 69.4 °F /  20.8 °C 43.4 °F /  6.3 °C 29.98in /  1015.1hPa East 7.0mph /  11.3km/h 11.0mph /  17.7km/h 39% 0.00in /  0mm
20:59 69.1 °F /  20.6 °C 43.1 °F /  6.2 °C 29.98in /  1015.1hPa ENE 5.0mph /  8km/h 13.0mph /  20.9km/h 39% 0.00in /  0mm
21:04 69.0 °F /  20.6 °C 42.3 °F /  5.7 °C 29.98in /  1015.1hPa ENE 5.0mph /  8km/h 13.0mph /  20.9km/h 38% 0.00in /  0mm
21:09 68.8 °F /  20.4 °C 42.1 °F /  5.6 °C 29.98in /  1015.1hPa ENE 5.0mph /  8km/h 11.0mph /  17.7km/h 38% 0.00in /  0mm
21:14 68.6 °F /  20.3 °C 42.0 °F /  5.6 °C 29.98in /  1015.1hPa ENE 4.0mph /  6.4km/h 10.0mph /  16.1km/h 38% 0.00in /  0mm
21:19 68.4 °F /  20.2 °C 41.8 °F /  5.4 °C 29.98in /  1015.1hPa ESE 4.0mph /  6.4km/h 11.0mph /  17.7km/h 38% 0.00in /  0mm
21:24 68.2 °F /  20.1 °C 42.3 °F /  5.7 °C 29.98in /  1015.1hPa East 6.0mph /  9.7km/h 9.0mph /  14.5km/h 39% 0.00in /  0mm
21:29 68.0 °F /  20 °C 41.4 °F /  5.2 °C 29.98in /  1015.1hPa ENE 5.0mph /  8km/h 9.0mph /  14.5km/h 38% 0.00in /  0mm
21:34 67.8 °F /  19.9 °C 41.9 °F /  5.5 °C 29.97in /  1014.8hPa ENE 5.0mph /  8km/h 9.0mph /  14.5km/h 39% 0.00in /  0mm
21:39 67.6 °F /  19.8 °C 41.1 °F /  5.1 °C 29.98in /  1015.1hPa ENE 4.0mph /  6.4km/h 9.0mph /  14.5km/h 38% 0.00in /  0mm
21:44 67.4 °F /  19.7 °C 40.9 °F /  4.9 °C 29.98in /  1015.1hPa NE 4.0mph /  6.4km/h 10.0mph /  16.1km/h 38% 0.00in /  0mm
21:49 67.2 °F /  19.6 °C 40.7 °F /  4.8 °C 29.98in /  1015.1hPa ENE 2.0mph /  3.2km/h 8.0mph /  12.9km/h 38% 0.00in /  0mm
21:54 67.0 °F /  19.4 °C 39.9 °F /  4.4 °C 29.98in /  1015.1hPa East 3.0mph /  4.8km/h 8.0mph /  12.9km/h 37% 0.00in /  0mm
21:59 66.7 °F /  19.3 °C 40.3 °F /  4.6 °C 29.99in /  1015.5hPa ENE 4.0mph /  6.4km/h 8.0mph /  12.9km/h 38% 0.00in /  0mm
22:04 66.5 °F /  19.2 °C 40.1 °F /  4.5 °C 29.99in /  1015.5hPa ENE 3.0mph /  4.8km/h 10.0mph /  16.1km/h 38% 0.00in /  0mm
22:09 66.5 °F /  19.2 °C 40.1 °F /  4.5 °C 29.99in /  1015.5hPa ENE 4.0mph /  6.4km/h 10.0mph /  16.1km/h 38% 0.00in /  0mm
22:14 66.2 °F /  19 °C 39.1 °F /  3.9 °C 29.99in /  1015.5hPa ENE 3.0mph /  4.8km/h 10.0mph /  16.1km/h 37% 0.00in /  0mm
22:19 66.1 °F /  18.9 °C 39.1 °F /  3.9 °C 29.99in /  1015.5hPa ENE 3.0mph /  4.8km/h 8.0mph /  12.9km/h 37% 0.00in /  0mm
22:24 66.0 °F /  18.9 °C 39.7 °F /  4.3 °C 29.99in /  1015.5hPa ENE 4.0mph /  6.4km/h 9.0mph /  14.5km/h 38% 0.00in /  0mm
22:29 65.8 °F /  18.8 °C 39.5 °F /  4.2 °C 29.99in /  1015.5hPa ENE 4.0mph /  6.4km/h 10.0mph /  16.1km/h 38% 0.00in /  0mm
22:34 65.6 °F /  18.7 °C 39.3 °F /  4.1 °C 29.99in /  1015.5hPa NE 2.0mph /  3.2km/h 10.0mph /  16.1km/h 38% 0.00in /  0mm
22:39 65.4 °F /  18.6 °C 39.1 °F /  3.9 °C 29.99in /  1015.5hPa ENE 3.0mph /  4.8km/h 8.0mph /  12.9km/h 38% 0.00in /  0mm
22:44 65.3 °F /  18.5 °C 39.7 °F /  4.3 °C 30.00in /  1015.8hPa ENE 3.0mph /  4.8km/h 7.0mph /  11.3km/h 39% 0.00in /  0mm
22:49 65.1 °F /  18.4 °C 39.5 °F /  4.2 °C 30.00in /  1015.8hPa East 6.0mph /  9.7km/h 7.0mph /  11.3km/h 39% 0.00in /  0mm
22:54 64.9 °F /  18.3 °C 39.3 °F /  4.1 °C 30.00in /  1015.8hPa ENE 4.0mph /  6.4km/h 9.0mph /  14.5km/h 39% 0.00in /  0mm
22:59 64.7 °F /  18.2 °C 39.2 °F /  4 °C 30.00in /  1015.8hPa ENE 3.0mph /  4.8km/h 9.0mph /  14.5km/h 39% 0.00in /  0mm
23:04 64.6 °F /  18.1 °C 39.7 °F /  4.3 °C 30.00in /  1015.8hPa ENE 3.0mph /  4.8km/h 8.0mph /  12.9km/h 40% 0.00in /  0mm
23:09 64.5 °F /  18.1 °C 39.6 °F /  4.2 °C 30.00in /  1015.8hPa ENE 3.0mph /  4.8km/h 7.0mph /  11.3km/h 40% 0.00in /  0mm
23:14 64.2 °F /  17.9 °C 39.4 °F /  4.1 °C 29.99in /  1015.5hPa ENE 3.0mph /  4.8km/h 7.0mph /  11.3km/h 40% 0.00in /  0mm
23:19 64.2 °F /  17.9 °C 39.4 °F /  4.1 °C 30.00in /  1015.8hPa ENE 3.0mph /  4.8km/h 7.0mph /  11.3km/h 40% 0.00in /  0mm
23:24 64.1 °F /  17.8 °C 39.3 °F /  4.1 °C 29.99in /  1015.5hPa ENE 1.0mph /  1.6km/h 4.0mph /  6.4km/h 40% 0.00in /  0mm
23:29 63.9 °F /  17.7 °C 39.7 °F /  4.3 °C 29.99in /  1015.5hPa ENE 2.0mph /  3.2km/h 5.0mph /  8km/h 41% 0.00in /  0mm
23:34 63.7 °F /  17.6 °C 38.9 °F /  3.8 °C 29.99in /  1015.5hPa NE 2.0mph /  3.2km/h 5.0mph /  8km/h 40% 0.00in /  0mm
23:39 63.7 °F /  17.6 °C 39.5 °F /  4.2 °C 29.99in /  1015.5hPa East 3.0mph /  4.8km/h 6.0mph /  9.7km/h 41% 0.00in /  0mm
23:44 63.6 °F /  17.6 °C 39.5 °F /  4.2 °C 29.98in /  1015.1hPa ENE 2.0mph /  3.2km/h 7.0mph /  11.3km/h 41% 0.00in /  0mm
23:49 63.5 °F /  17.5 °C 38.7 °F /  3.7 °C 29.98in /  1015.1hPa ENE 4.0mph /  6.4km/h 5.0mph /  8km/h 40% 0.00in /  0mm
23:54 63.4 °F /  17.4 °C 39.3 °F /  4.1 °C 29.98in /  1015.1hPa ENE 2.0mph /  3.2km/h 5.0mph /  8km/h 41% 0.00in /  0mm
23:59 63.2 °F /  17.3 °C 39.1 °F /  3.9 °C 29.98in /  1015.1hPa ENE 2.0mph /  3.2km/h 5.0mph /  8km/h 41% 0.00in /  0mm
Buffalo, New York, USA
Compliments of Weather Underground - 2.5 mb